sensor_id;sensor_type;location;lat;lon;timestamp;P1;durP1;ratioP1;P2;durP2;ratioP2
57778;SDS011;43608;49.486;9.640;2023-07-28T00:00:30;2.45;;;2.03;;
57778;SDS011;43608;49.486;9.640;2023-07-28T00:01:00;2.50;;;2.03;;
57778;SDS011;43608;49.486;9.640;2023-07-28T00:01:30;2.60;;;2.28;;
57778;SDS011;43608;49.486;9.640;2023-07-28T00:02:03;2.40;;;2.10;;
57778;SDS011;43608;49.486;9.640;2023-07-28T00:02:34;2.35;;;2.08;;
57778;SDS011;43608;49.486;9.640;2023-07-28T00:03:04;3.10;;;2.30;;
57778;SDS011;43608;49.486;9.640;2023-07-28T00:03:34;2.30;;;2.10;;
57778;SDS011;43608;49.486;9.640;2023-07-28T00:04:05;2.47;;;2.20;;
57778;SDS011;43608;49.486;9.640;2023-07-28T00:04:37;3.13;;;2.30;;
57778;SDS011;43608;49.486;9.640;2023-07-28T00:05:07;2.72;;;2.20;;
57778;SDS011;43608;49.486;9.640;2023-07-28T00:05:38;2.50;;;2.20;;
57778;SDS011;43608;49.486;9.640;2023-07-28T00:06:08;2.92;;;2.30;;
57778;SDS011;43608;49.486;9.640;2023-07-28T00:06:38;2.45;;;2.20;;
57778;SDS011;43608;49.486;9.640;2023-07-28T00:07:09;2.53;;;2.20;;
57778;SDS011;43608;49.486;9.640;2023-07-28T00:07:39;2.78;;;2.20;;
57778;SDS011;43608;49.486;9.640;2023-07-28T00:08:09;2.17;;;1.98;;
57778;SDS011;43608;49.486;9.640;2023-07-28T00:08:40;2.92;;;2.13;;
57778;SDS011;43608;49.486;9.640;2023-07-28T00:09:10;3.42;;;2.30;;
57778;SDS011;43608;49.486;9.640;2023-07-28T00:09:41;3.05;;;2.30;;
57778;SDS011;43608;49.486;9.640;2023-07-28T00:10:11;3.05;;;2.38;;
57778;SDS011;43608;49.486;9.640;2023-07-28T00:10:41;3.38;;;2.38;;
57778;SDS011;43608;49.486;9.640;2023-07-28T00:11:13;2.40;;;2.20;;
57778;SDS011;43608;49.486;9.640;2023-07-28T00:11:44;2.30;;;2.10;;
57778;SDS011;43608;49.486;9.640;2023-07-28T00:12:15;2.45;;;2.25;;
57778;SDS011;43608;49.486;9.640;2023-07-28T00:12:45;2.75;;;2.30;;
57778;SDS011;43608;49.486;9.640;2023-07-28T00:13:16;2.80;;;2.28;;
57778;SDS011;43608;49.486;9.640;2023-07-28T00:13:46;2.30;;;2.10;;
57778;SDS011;43608;49.486;9.640;2023-07-28T00:14:16;2.92;;;2.40;;
57778;SDS011;43608;49.486;9.640;2023-07-28T00:14:47;2.40;;;2.20;;
57778;SDS011;43608;49.486;9.640;2023-07-28T00:15:17;2.50;;;2.30;;
57778;SDS011;43608;49.486;9.640;2023-07-28T00:15:48;2.90;;;2.30;;
57778;SDS011;43608;49.486;9.640;2023-07-28T00:16:18;2.63;;;2.20;;
57778;SDS011;43608;49.486;9.640;2023-07-28T00:16:48;3.22;;;2.55;;
57778;SDS011;43608;49.486;9.640;2023-07-28T00:17:19;2.83;;;2.30;;
57778;SDS011;43608;49.486;9.640;2023-07-28T00:17:49;2.42;;;2.13;;
57778;SDS011;43608;49.486;9.640;2023-07-28T00:18:19;2.90;;;2.50;;
57778;SDS011;43608;49.486;9.640;2023-07-28T00:18:51;2.75;;;2.28;;
57778;SDS011;43608;49.486;9.640;2023-07-28T00:19:21;2.85;;;2.35;;
57778;SDS011;43608;49.486;9.640;2023-07-28T00:19:52;2.90;;;2.20;;
57778;SDS011;43608;49.486;9.640;2023-07-28T00:20:22;2.47;;;2.17;;
57778;SDS011;43608;49.486;9.640;2023-07-28T00:20:52;3.03;;;2.40;;
57778;SDS011;43608;49.486;9.640;2023-07-28T00:21:23;3.38;;;2.42;;
57778;SDS011;43608;49.486;9.640;2023-07-28T00:21:53;2.53;;;2.20;;
57778;SDS011;43608;49.486;9.640;2023-07-28T00:22:26;2.45;;;2.20;;
57778;SDS011;43608;49.486;9.640;2023-07-28T00:22:56;2.88;;;2.25;;
57778;SDS011;43608;49.486;9.640;2023-07-28T00:23:27;2.83;;;2.45;;
57778;SDS011;43608;49.486;9.640;2023-07-28T00:23:58;3.35;;;2.40;;
57778;SDS011;43608;49.486;9.640;2023-07-28T00:24:28;2.70;;;2.38;;
57778;SDS011;43608;49.486;9.640;2023-07-28T00:24:59;3.78;;;2.70;;
57778;SDS011;43608;49.486;9.640;2023-07-28T00:25:29;3.28;;;2.53;;
57778;SDS011;43608;49.486;9.640;2023-07-28T00:25:59;2.50;;;2.28;;
57778;SDS011;43608;49.486;9.640;2023-07-28T00:26:30;2.83;;;2.22;;
57778;SDS011;43608;49.486;9.640;2023-07-28T00:27:00;3.00;;;2.40;;
57778;SDS011;43608;49.486;9.640;2023-07-28T00:27:30;2.80;;;2.40;;
57778;SDS011;43608;49.486;9.640;2023-07-28T00:28:01;3.05;;;2.25;;
57778;SDS011;43608;49.486;9.640;2023-07-28T00:28:31;3.05;;;2.40;;
57778;SDS011;43608;49.486;9.640;2023-07-28T00:29:02;3.40;;;2.50;;
57778;SDS011;43608;49.486;9.640;2023-07-28T00:29:35;3.15;;;2.60;;
57778;SDS011;43608;49.486;9.640;2023-07-28T00:30:05;3.25;;;2.30;;
57778;SDS011;43608;49.486;9.640;2023-07-28T00:30:36;3.35;;;2.47;;
57778;SDS011;43608;49.486;9.640;2023-07-28T00:31:06;2.78;;;2.28;;
57778;SDS011;43608;49.486;9.640;2023-07-28T00:31:36;2.92;;;2.45;;
57778;SDS011;43608;49.486;9.640;2023-07-28T00:32:07;3.35;;;2.40;;
57778;SDS011;43608;49.486;9.640;2023-07-28T00:32:38;2.80;;;2.20;;
57778;SDS011;43608;49.486;9.640;2023-07-28T00:33:08;3.42;;;2.30;;
57778;SDS011;43608;49.486;9.640;2023-07-28T00:33:38;3.00;;;2.60;;
57778;SDS011;43608;49.486;9.640;2023-07-28T00:34:09;2.67;;;2.20;;
57778;SDS011;43608;49.486;9.640;2023-07-28T00:34:39;2.60;;;2.20;;
57778;SDS011;43608;49.486;9.640;2023-07-28T00:35:09;2.80;;;2.30;;
57778;SDS011;43608;49.486;9.640;2023-07-28T00:35:40;3.53;;;2.40;;
57778;SDS011;43608;49.486;9.640;2023-07-28T00:36:10;2.45;;;2.20;;
57778;SDS011;43608;49.486;9.640;2023-07-28T00:36:40;2.40;;;2.20;;
57778;SDS011;43608;49.486;9.640;2023-07-28T00:37:11;2.45;;;2.25;;
57778;SDS011;43608;49.486;9.640;2023-07-28T00:37:41;2.70;;;2.20;;
57778;SDS011;43608;49.486;9.640;2023-07-28T00:38:11;2.50;;;2.10;;
57778;SDS011;43608;49.486;9.640;2023-07-28T00:38:42;2.97;;;2.30;;
57778;SDS011;43608;49.486;9.640;2023-07-28T00:39:12;3.03;;;2.35;;
57778;SDS011;43608;49.486;9.640;2023-07-28T00:39:42;2.58;;;2.28;;
57778;SDS011;43608;49.486;9.640;2023-07-28T00:40:13;2.63;;;2.20;;
57778;SDS011;43608;49.486;9.640;2023-07-28T00:40:43;2.42;;;2.10;;
57778;SDS011;43608;49.486;9.640;2023-07-28T00:41:13;2.50;;;2.20;;
57778;SDS011;43608;49.486;9.640;2023-07-28T00:41:44;2.42;;;2.08;;
57778;SDS011;43608;49.486;9.640;2023-07-28T00:42:15;2.58;;;2.17;;
57778;SDS011;43608;49.486;9.640;2023-07-28T00:42:45;2.60;;;2.20;;
57778;SDS011;43608;49.486;9.640;2023-07-28T00:43:16;2.35;;;2.00;;
57778;SDS011;43608;49.486;9.640;2023-07-28T00:43:46;2.53;;;2.17;;
57778;SDS011;43608;49.486;9.640;2023-07-28T00:44:16;2.30;;;2.10;;
57778;SDS011;43608;49.486;9.640;2023-07-28T00:44:47;2.65;;;2.30;;
57778;SDS011;43608;49.486;9.640;2023-07-28T00:45:17;2.80;;;2.22;;
57778;SDS011;43608;49.486;9.640;2023-07-28T00:45:48;2.60;;;2.22;;
57778;SDS011;43608;49.486;9.640;2023-07-28T00:46:18;2.10;;;1.90;;
57778;SDS011;43608;49.486;9.640;2023-07-28T00:46:49;2.78;;;2.15;;
57778;SDS011;43608;49.486;9.640;2023-07-28T00:47:19;2.33;;;2.13;;
57778;SDS011;43608;49.486;9.640;2023-07-28T00:47:49;2.30;;;2.10;;
57778;SDS011;43608;49.486;9.640;2023-07-28T00:48:20;2.88;;;2.17;;
57778;SDS011;43608;49.486;9.640;2023-07-28T00:48:50;2.00;;;1.83;;
57778;SDS011;43608;49.486;9.640;2023-07-28T00:49:21;2.63;;;2.20;;
57778;SDS011;43608;49.486;9.640;2023-07-28T00:49:51;2.60;;;2.10;;
57778;SDS011;43608;49.486;9.640;2023-07-28T00:50:22;2.53;;;2.10;;
57778;SDS011;43608;49.486;9.640;2023-07-28T00:50:52;2.20;;;2.00;;
57778;SDS011;43608;49.486;9.640;2023-07-28T00:51:24;2.33;;;2.10;;
57778;SDS011;43608;49.486;9.640;2023-07-28T00:51:54;1.83;;;1.73;;
57778;SDS011;43608;49.486;9.640;2023-07-28T00:52:26;2.15;;;1.98;;
57778;SDS011;43608;49.486;9.640;2023-07-28T00:52:56;2.65;;;2.10;;
57778;SDS011;43608;49.486;9.640;2023-07-28T00:53:27;2.10;;;1.90;;
57778;SDS011;43608;49.486;9.640;2023-07-28T00:53:58;2.08;;;1.88;;
57778;SDS011;43608;49.486;9.640;2023-07-28T00:54:31;2.58;;;2.00;;
57778;SDS011;43608;49.486;9.640;2023-07-28T00:55:02;2.40;;;2.10;;
57778;SDS011;43608;49.486;9.640;2023-07-28T00:55:33;2.17;;;1.98;;
57778;SDS011;43608;49.486;9.640;2023-07-28T00:56:04;2.20;;;2.00;;
57778;SDS011;43608;49.486;9.640;2023-07-28T00:56:35;2.22;;;2.00;;
57778;SDS011;43608;49.486;9.640;2023-07-28T00:57:06;2.00;;;1.80;;
57778;SDS011;43608;49.486;9.640;2023-07-28T00:57:36;2.15;;;1.95;;
57778;SDS011;43608;49.486;9.640;2023-07-28T00:58:09;2.05;;;1.85;;
57778;SDS011;43608;49.486;9.640;2023-07-28T00:58:39;1.77;;;1.67;;
57778;SDS011;43608;49.486;9.640;2023-07-28T00:59:09;1.90;;;1.80;;
57778;SDS011;43608;49.486;9.640;2023-07-28T00:59:40;2.35;;;2.00;;
57778;SDS011;43608;49.486;9.640;2023-07-28T01:00:10;1.83;;;1.70;;
57778;SDS011;43608;49.486;9.640;2023-07-28T01:00:41;2.20;;;2.00;;
57778;SDS011;43608;49.486;9.640;2023-07-28T01:01:11;2.10;;;1.90;;
57778;SDS011;43608;49.486;9.640;2023-07-28T01:01:42;2.10;;;1.90;;
57778;SDS011;43608;49.486;9.640;2023-07-28T01:02:12;2.10;;;1.90;;
57778;SDS011;43608;49.486;9.640;2023-07-28T01:02:43;2.10;;;1.90;;
57778;SDS011;43608;49.486;9.640;2023-07-28T01:03:17;2.25;;;1.95;;
57778;SDS011;43608;49.486;9.640;2023-07-28T01:03:50;2.05;;;1.88;;
57778;SDS011;43608;49.486;9.640;2023-07-28T01:04:21;2.00;;;1.80;;
57778;SDS011;43608;49.486;9.640;2023-07-28T01:04:51;2.28;;;1.90;;
57778;SDS011;43608;49.486;9.640;2023-07-28T01:05:24;2.63;;;1.98;;
57778;SDS011;43608;49.486;9.640;2023-07-28T01:06:02;2.45;;;2.10;;
57778;SDS011;43608;49.486;9.640;2023-07-28T01:08:56;2.42;;;2.13;;
57778;SDS011;43608;49.486;9.640;2023-07-28T01:09:29;2.45;;;2.00;;
57778;SDS011;43608;49.486;9.640;2023-07-28T01:10:10;2.38;;;2.10;;
57778;SDS011;43608;49.486;9.640;2023-07-28T01:10:44;2.15;;;1.95;;
57778;SDS011;43608;49.486;9.640;2023-07-28T01:11:15;2.20;;;2.00;;
57778;SDS011;43608;49.486;9.640;2023-07-28T01:11:55;2.15;;;1.95;;
57778;SDS011;43608;49.486;9.640;2023-07-28T01:12:28;2.10;;;1.90;;
57778;SDS011;43608;49.486;9.640;2023-07-28T01:12:59;2.25;;;2.03;;
57778;SDS011;43608;49.486;9.640;2023-07-28T01:13:29;2.33;;;2.00;;
57778;SDS011;43608;49.486;9.640;2023-07-28T01:14:00;2.17;;;1.92;;
57778;SDS011;43608;49.486;9.640;2023-07-28T01:14:30;2.40;;;2.15;;
57778;SDS011;43608;49.486;9.640;2023-07-28T01:15:01;2.50;;;2.15;;
57778;SDS011;43608;49.486;9.640;2023-07-28T01:15:31;2.70;;;2.20;;
57778;SDS011;43608;49.486;9.640;2023-07-28T01:16:01;3.88;;;2.33;;
57778;SDS011;43608;49.486;9.640;2023-07-28T01:16:32;2.08;;;1.88;;
57778;SDS011;43608;49.486;9.640;2023-07-28T01:17:02;2.47;;;2.10;;
57778;SDS011;43608;49.486;9.640;2023-07-28T01:17:33;2.50;;;2.10;;
57778;SDS011;43608;49.486;9.640;2023-07-28T01:18:04;2.33;;;2.00;;
57778;SDS011;43608;49.486;9.640;2023-07-28T01:18:35;2.33;;;2.00;;
57778;SDS011;43608;49.486;9.640;2023-07-28T01:19:06;2.78;;;2.10;;
57778;SDS011;43608;49.486;9.640;2023-07-28T01:19:36;3.17;;;2.05;;
57778;SDS011;43608;49.486;9.640;2023-07-28T01:20:07;2.60;;;2.05;;
57778;SDS011;43608;49.486;9.640;2023-07-28T01:20:38;2.75;;;2.20;;
57778;SDS011;43608;49.486;9.640;2023-07-28T01:21:12;2.53;;;2.20;;
57778;SDS011;43608;49.486;9.640;2023-07-28T01:21:48;2.45;;;2.05;;
57778;SDS011;43608;49.486;9.640;2023-07-28T01:23:19;2.15;;;1.95;;
57778;SDS011;43608;49.486;9.640;2023-07-28T01:24:01;2.55;;;2.10;;
57778;SDS011;43608;49.486;9.640;2023-07-28T01:26:35;1.88;;;1.75;;
57778;SDS011;43608;49.486;9.640;2023-07-28T01:27:06;2.20;;;2.00;;
57778;SDS011;43608;49.486;9.640;2023-07-28T01:27:37;2.10;;;1.90;;
57778;SDS011;43608;49.486;9.640;2023-07-28T01:28:12;2.15;;;1.83;;
57778;SDS011;43608;49.486;9.640;2023-07-28T01:28:43;2.55;;;1.98;;
57778;SDS011;43608;49.486;9.640;2023-07-28T01:29:14;1.98;;;1.83;;
57778;SDS011;43608;49.486;9.640;2023-07-28T01:29:46;2.08;;;1.80;;
57778;SDS011;43608;49.486;9.640;2023-07-28T01:30:17;2.10;;;1.90;;
57778;SDS011;43608;49.486;9.640;2023-07-28T01:30:49;1.90;;;1.80;;
57778;SDS011;43608;49.486;9.640;2023-07-28T01:31:20;2.15;;;1.90;;
57778;SDS011;43608;49.486;9.640;2023-07-28T01:31:51;2.10;;;1.90;;
57778;SDS011;43608;49.486;9.640;2023-07-28T01:32:21;2.67;;;2.22;;
57778;SDS011;43608;49.486;9.640;2023-07-28T01:32:55;2.13;;;1.92;;
57778;SDS011;43608;49.486;9.640;2023-07-28T01:33:26;3.47;;;2.00;;
57778;SDS011;43608;49.486;9.640;2023-07-28T01:33:56;2.15;;;1.90;;
57778;SDS011;43608;49.486;9.640;2023-07-28T01:34:26;2.20;;;2.00;;
57778;SDS011;43608;49.486;9.640;2023-07-28T01:34:57;2.00;;;1.80;;
57778;SDS011;43608;49.486;9.640;2023-07-28T01:35:27;1.70;;;1.60;;
57778;SDS011;43608;49.486;9.640;2023-07-28T01:35:58;2.03;;;1.80;;
57778;SDS011;43608;49.486;9.640;2023-07-28T01:36:30;1.75;;;1.65;;
57778;SDS011;43608;49.486;9.640;2023-07-28T01:37:01;1.70;;;1.60;;
57778;SDS011;43608;49.486;9.640;2023-07-28T01:37:31;1.83;;;1.73;;
57778;SDS011;43608;49.486;9.640;2023-07-28T01:38:01;2.30;;;2.00;;
57778;SDS011;43608;49.486;9.640;2023-07-28T01:38:32;1.83;;;1.73;;
57778;SDS011;43608;49.486;9.640;2023-07-28T01:39:02;2.35;;;1.92;;
57778;SDS011;43608;49.486;9.640;2023-07-28T01:39:32;1.98;;;1.80;;
57778;SDS011;43608;49.486;9.640;2023-07-28T01:40:03;2.00;;;1.80;;
57778;SDS011;43608;49.486;9.640;2023-07-28T01:40:34;1.80;;;1.70;;
57778;SDS011;43608;49.486;9.640;2023-07-28T01:41:04;2.03;;;1.80;;
57778;SDS011;43608;49.486;9.640;2023-07-28T01:41:35;2.50;;;1.90;;
57778;SDS011;43608;49.486;9.640;2023-07-28T01:42:05;2.83;;;2.05;;
57778;SDS011;43608;49.486;9.640;2023-07-28T01:42:36;2.08;;;1.88;;
57778;SDS011;43608;49.486;9.640;2023-07-28T01:43:06;2.45;;;2.00;;
57778;SDS011;43608;49.486;9.640;2023-07-28T01:43:36;2.30;;;1.80;;
57778;SDS011;43608;49.486;9.640;2023-07-28T01:44:07;2.00;;;1.80;;
57778;SDS011;43608;49.486;9.640;2023-07-28T01:44:37;2.30;;;1.90;;
57778;SDS011;43608;49.486;9.640;2023-07-28T01:45:08;1.90;;;1.77;;
57778;SDS011;43608;49.486;9.640;2023-07-28T01:45:38;2.00;;;1.77;;
57778;SDS011;43608;49.486;9.640;2023-07-28T01:46:09;2.38;;;2.00;;
57778;SDS011;43608;49.486;9.640;2023-07-28T01:46:39;1.92;;;1.77;;
57778;SDS011;43608;49.486;9.640;2023-07-28T01:47:09;2.03;;;1.90;;
57778;SDS011;43608;49.486;9.640;2023-07-28T01:47:40;1.98;;;1.80;;
57778;SDS011;43608;49.486;9.640;2023-07-28T01:48:10;2.00;;;1.80;;
57778;SDS011;43608;49.486;9.640;2023-07-28T01:48:40;1.98;;;1.65;;
57778;SDS011;43608;49.486;9.640;2023-07-28T01:49:11;2.00;;;1.80;;
57778;SDS011;43608;49.486;9.640;2023-07-28T01:49:41;1.70;;;1.60;;
57778;SDS011;43608;49.486;9.640;2023-07-28T01:50:12;1.70;;;1.60;;
57778;SDS011;43608;49.486;9.640;2023-07-28T01:50:42;2.13;;;1.90;;
57778;SDS011;43608;49.486;9.640;2023-07-28T01:51:13;1.80;;;1.70;;
57778;SDS011;43608;49.486;9.640;2023-07-28T01:51:43;1.80;;;1.70;;
57778;SDS011;43608;49.486;9.640;2023-07-28T01:52:13;2.00;;;1.80;;
57778;SDS011;43608;49.486;9.640;2023-07-28T01:52:44;1.80;;;1.70;;
57778;SDS011;43608;49.486;9.640;2023-07-28T01:53:14;1.80;;;1.70;;
57778;SDS011;43608;49.486;9.640;2023-07-28T01:53:44;1.98;;;1.77;;
57778;SDS011;43608;49.486;9.640;2023-07-28T01:54:15;2.00;;;1.80;;
57778;SDS011;43608;49.486;9.640;2023-07-28T01:54:45;1.80;;;1.70;;
57778;SDS011;43608;49.486;9.640;2023-07-28T01:55:15;1.70;;;1.60;;
57778;SDS011;43608;49.486;9.640;2023-07-28T01:55:46;2.00;;;1.80;;
57778;SDS011;43608;49.486;9.640;2023-07-28T01:56:16;1.80;;;1.70;;
57778;SDS011;43608;49.486;9.640;2023-07-28T01:56:46;1.95;;;1.73;;
57778;SDS011;43608;49.486;9.640;2023-07-28T01:57:17;1.95;;;1.80;;
57778;SDS011;43608;49.486;9.640;2023-07-28T01:57:54;1.95;;;1.77;;
57778;SDS011;43608;49.486;9.640;2023-07-28T01:58:26;1.70;;;1.60;;
57778;SDS011;43608;49.486;9.640;2023-07-28T01:58:57;2.17;;;1.85;;
57778;SDS011;43608;49.486;9.640;2023-07-28T01:59:27;1.70;;;1.60;;
57778;SDS011;43608;49.486;9.640;2023-07-28T01:59:58;1.80;;;1.70;;
57778;SDS011;43608;49.486;9.640;2023-07-28T02:00:28;1.85;;;1.70;;
57778;SDS011;43608;49.486;9.640;2023-07-28T02:00:59;1.98;;;1.77;;
57778;SDS011;43608;49.486;9.640;2023-07-28T02:01:29;2.03;;;1.63;;
57778;SDS011;43608;49.486;9.640;2023-07-28T02:01:59;2.03;;;1.80;;
57778;SDS011;43608;49.486;9.640;2023-07-28T02:02:29;1.75;;;1.65;;
57778;SDS011;43608;49.486;9.640;2023-07-28T02:03:00;2.17;;;1.80;;
57778;SDS011;43608;49.486;9.640;2023-07-28T02:03:33;1.80;;;1.70;;
57778;SDS011;43608;49.486;9.640;2023-07-28T02:04:03;1.70;;;1.60;;
57778;SDS011;43608;49.486;9.640;2023-07-28T02:04:33;1.90;;;1.80;;
57778;SDS011;43608;49.486;9.640;2023-07-28T02:05:04;2.05;;;1.85;;
57778;SDS011;43608;49.486;9.640;2023-07-28T02:05:34;1.90;;;1.80;;
57778;SDS011;43608;49.486;9.640;2023-07-28T02:06:05;2.00;;;1.77;;
57778;SDS011;43608;49.486;9.640;2023-07-28T02:06:35;1.70;;;1.60;;
57778;SDS011;43608;49.486;9.640;2023-07-28T02:07:05;2.05;;;1.85;;
57778;SDS011;43608;49.486;9.640;2023-07-28T02:07:36;1.92;;;1.70;;
57778;SDS011;43608;49.486;9.640;2023-07-28T02:08:06;2.78;;;2.15;;
57778;SDS011;43608;49.486;9.640;2023-07-28T02:08:36;2.08;;;1.88;;
57778;SDS011;43608;49.486;9.640;2023-07-28T02:09:07;2.13;;;1.92;;
57778;SDS011;43608;49.486;9.640;2023-07-28T02:09:37;2.30;;;1.95;;
57778;SDS011;43608;49.486;9.640;2023-07-28T02:10:08;2.20;;;2.00;;
57778;SDS011;43608;49.486;9.640;2023-07-28T02:10:39;2.10;;;1.90;;
57778;SDS011;43608;49.486;9.640;2023-07-28T02:11:09;2.38;;;2.05;;
57778;SDS011;43608;49.486;9.640;2023-07-28T02:11:40;2.10;;;1.90;;
57778;SDS011;43608;49.486;9.640;2023-07-28T02:12:10;1.98;;;1.80;;
57778;SDS011;43608;49.486;9.640;2023-07-28T02:12:40;2.17;;;1.90;;
57778;SDS011;43608;49.486;9.640;2023-07-28T02:13:11;2.10;;;1.90;;
57778;SDS011;43608;49.486;9.640;2023-07-28T02:13:41;1.80;;;1.70;;
57778;SDS011;43608;49.486;9.640;2023-07-28T02:14:11;2.17;;;1.92;;
57778;SDS011;43608;49.486;9.640;2023-07-28T02:14:42;2.20;;;1.90;;
57778;SDS011;43608;49.486;9.640;2023-07-28T02:15:13;1.80;;;1.70;;
57778;SDS011;43608;49.486;9.640;2023-07-28T02:15:44;2.10;;;1.90;;
57778;SDS011;43608;49.486;9.640;2023-07-28T02:16:14;2.05;;;1.85;;
57778;SDS011;43608;49.486;9.640;2023-07-28T02:16:44;2.20;;;2.00;;
57778;SDS011;43608;49.486;9.640;2023-07-28T02:17:15;1.77;;;1.67;;
57778;SDS011;43608;49.486;9.640;2023-07-28T02:17:45;1.77;;;1.67;;
57778;SDS011;43608;49.486;9.640;2023-07-28T02:18:15;1.70;;;1.60;;
57778;SDS011;43608;49.486;9.640;2023-07-28T02:18:46;2.00;;;1.80;;
57778;SDS011;43608;49.486;9.640;2023-07-28T02:19:16;1.90;;;1.70;;
57778;SDS011;43608;49.486;9.640;2023-07-28T02:19:47;2.00;;;1.80;;
57778;SDS011;43608;49.486;9.640;2023-07-28T02:20:17;1.70;;;1.60;;
57778;SDS011;43608;49.486;9.640;2023-07-28T02:20:48;1.77;;;1.67;;
57778;SDS011;43608;49.486;9.640;2023-07-28T02:21:19;1.90;;;1.80;;
57778;SDS011;43608;49.486;9.640;2023-07-28T02:21:49;1.98;;;1.77;;
57778;SDS011;43608;49.486;9.640;2023-07-28T02:22:20;1.75;;;1.65;;
57778;SDS011;43608;49.486;9.640;2023-07-28T02:22:50;2.30;;;2.00;;
57778;SDS011;43608;49.486;9.640;2023-07-28T02:23:20;1.75;;;1.65;;
57778;SDS011;43608;49.486;9.640;2023-07-28T02:23:51;2.03;;;1.80;;
57778;SDS011;43608;49.486;9.640;2023-07-28T02:24:21;1.83;;;1.70;;
57778;SDS011;43608;49.486;9.640;2023-07-28T02:24:52;1.95;;;1.85;;
57778;SDS011;43608;49.486;9.640;2023-07-28T02:25:22;1.83;;;1.70;;
57778;SDS011;43608;49.486;9.640;2023-07-28T02:25:52;1.85;;;1.75;;
57778;SDS011;43608;49.486;9.640;2023-07-28T02:26:23;1.80;;;1.70;;
57778;SDS011;43608;49.486;9.640;2023-07-28T02:26:53;1.58;;;1.40;;
57778;SDS011;43608;49.486;9.640;2023-07-28T02:27:24;1.80;;;1.70;;
57778;SDS011;43608;49.486;9.640;2023-07-28T02:27:55;1.88;;;1.75;;
57778;SDS011;43608;49.486;9.640;2023-07-28T02:28:25;2.00;;;1.83;;
57778;SDS011;43608;49.486;9.640;2023-07-28T02:28:55;1.85;;;1.75;;
57778;SDS011;43608;49.486;9.640;2023-07-28T02:29:26;2.60;;;1.90;;
57778;SDS011;43608;49.486;9.640;2023-07-28T02:29:56;2.25;;;1.88;;
57778;SDS011;43608;49.486;9.640;2023-07-28T02:30:26;1.80;;;1.70;;
57778;SDS011;43608;49.486;9.640;2023-07-28T02:30:57;2.00;;;1.80;;
57778;SDS011;43608;49.486;9.640;2023-07-28T02:31:27;2.10;;;1.90;;
57778;SDS011;43608;49.486;9.640;2023-07-28T02:31:58;2.05;;;1.85;;
57778;SDS011;43608;49.486;9.640;2023-07-28T02:32:28;2.00;;;1.80;;
57778;SDS011;43608;49.486;9.640;2023-07-28T02:32:59;2.00;;;1.80;;
57778;SDS011;43608;49.486;9.640;2023-07-28T02:33:29;1.95;;;1.80;;
57778;SDS011;43608;49.486;9.640;2023-07-28T02:33:59;1.85;;;1.75;;
57778;SDS011;43608;49.486;9.640;2023-07-28T02:34:30;1.95;;;1.77;;
57778;SDS011;43608;49.486;9.640;2023-07-28T02:35:00;2.00;;;1.80;;
57778;SDS011;43608;49.486;9.640;2023-07-28T02:35:30;2.13;;;1.92;;
57778;SDS011;43608;49.486;9.640;2023-07-28T02:36:03;2.22;;;1.90;;
57778;SDS011;43608;49.486;9.640;2023-07-28T02:36:34;2.15;;;1.95;;
57778;SDS011;43608;49.486;9.640;2023-07-28T02:37:04;2.03;;;1.83;;
57778;SDS011;43608;49.486;9.640;2023-07-28T02:37:35;1.88;;;1.77;;
57778;SDS011;43608;49.486;9.640;2023-07-28T02:38:05;1.88;;;1.77;;
57778;SDS011;43608;49.486;9.640;2023-07-28T02:38:36;2.10;;;1.90;;
57778;SDS011;43608;49.486;9.640;2023-07-28T02:39:06;1.95;;;1.83;;
57778;SDS011;43608;49.486;9.640;2023-07-28T02:39:36;1.80;;;1.70;;
57778;SDS011;43608;49.486;9.640;2023-07-28T02:40:07;2.15;;;1.90;;
57778;SDS011;43608;49.486;9.640;2023-07-28T02:40:38;2.65;;;1.90;;
57778;SDS011;43608;49.486;9.640;2023-07-28T02:41:08;2.13;;;1.92;;
57778;SDS011;43608;49.486;9.640;2023-07-28T02:41:38;2.13;;;1.90;;
57778;SDS011;43608;49.486;9.640;2023-07-28T02:42:09;1.80;;;1.70;;
57778;SDS011;43608;49.486;9.640;2023-07-28T02:42:39;2.20;;;2.00;;
57778;SDS011;43608;49.486;9.640;2023-07-28T02:43:09;2.03;;;1.83;;
57778;SDS011;43608;49.486;9.640;2023-07-28T02:43:40;2.10;;;1.90;;
57778;SDS011;43608;49.486;9.640;2023-07-28T02:44:10;2.78;;;2.00;;
57778;SDS011;43608;49.486;9.640;2023-07-28T02:44:40;2.05;;;1.85;;
57778;SDS011;43608;49.486;9.640;2023-07-28T02:45:11;2.50;;;1.90;;
57778;SDS011;43608;49.486;9.640;2023-07-28T02:45:41;1.90;;;1.77;;
57778;SDS011;43608;49.486;9.640;2023-07-28T02:46:12;2.00;;;1.80;;
57778;SDS011;43608;49.486;9.640;2023-07-28T02:46:42;1.80;;;1.70;;
57778;SDS011;43608;49.486;9.640;2023-07-28T02:47:13;1.95;;;1.80;;
57778;SDS011;43608;49.486;9.640;2023-07-28T02:47:43;2.55;;;1.98;;
57778;SDS011;43608;49.486;9.640;2023-07-28T02:48:13;2.08;;;1.90;;
57778;SDS011;43608;49.486;9.640;2023-07-28T02:48:44;1.80;;;1.70;;
57778;SDS011;43608;49.486;9.640;2023-07-28T02:49:14;2.10;;;1.90;;
57778;SDS011;43608;49.486;9.640;2023-07-28T02:49:44;2.15;;;1.95;;
57778;SDS011;43608;49.486;9.640;2023-07-28T02:50:15;2.10;;;1.90;;
57778;SDS011;43608;49.486;9.640;2023-07-28T02:50:46;2.05;;;1.85;;
57778;SDS011;43608;49.486;9.640;2023-07-28T02:51:17;1.80;;;1.70;;
57778;SDS011;43608;49.486;9.640;2023-07-28T02:51:47;1.80;;;1.70;;
57778;SDS011;43608;49.486;9.640;2023-07-28T02:52:17;1.85;;;1.75;;
57778;SDS011;43608;49.486;9.640;2023-07-28T02:52:48;1.98;;;1.80;;
57778;SDS011;43608;49.486;9.640;2023-07-28T02:53:19;1.98;;;1.80;;
57778;SDS011;43608;49.486;9.640;2023-07-28T02:53:49;1.90;;;1.70;;
57778;SDS011;43608;49.486;9.640;2023-07-28T02:54:19;1.83;;;1.70;;
57778;SDS011;43608;49.486;9.640;2023-07-28T02:54:51;1.88;;;1.77;;
57778;SDS011;43608;49.486;9.640;2023-07-28T02:55:21;1.90;;;1.80;;
57778;SDS011;43608;49.486;9.640;2023-07-28T02:55:51;1.90;;;1.80;;
57778;SDS011;43608;49.486;9.640;2023-07-28T02:56:22;1.70;;;1.60;;
57778;SDS011;43608;49.486;9.640;2023-07-28T02:56:52;2.00;;;1.80;;
57778;SDS011;43608;49.486;9.640;2023-07-28T02:57:23;1.83;;;1.73;;
57778;SDS011;43608;49.486;9.640;2023-07-28T02:57:53;1.75;;;1.65;;
57778;SDS011;43608;49.486;9.640;2023-07-28T02:58:24;1.92;;;1.75;;
57778;SDS011;43608;49.486;9.640;2023-07-28T02:58:54;1.80;;;1.70;;
57778;SDS011;43608;49.486;9.640;2023-07-28T02:59:24;1.80;;;1.70;;
57778;SDS011;43608;49.486;9.640;2023-07-28T02:59:55;2.00;;;1.80;;
57778;SDS011;43608;49.486;9.640;2023-07-28T03:00:25;2.00;;;1.80;;
57778;SDS011;43608;49.486;9.640;2023-07-28T03:00:56;1.80;;;1.70;;
57778;SDS011;43608;49.486;9.640;2023-07-28T03:01:26;1.70;;;1.60;;
57778;SDS011;43608;49.486;9.640;2023-07-28T03:01:56;1.80;;;1.70;;
57778;SDS011;43608;49.486;9.640;2023-07-28T03:02:27;2.00;;;1.80;;
57778;SDS011;43608;49.486;9.640;2023-07-28T03:02:57;2.00;;;1.85;;
57778;SDS011;43608;49.486;9.640;2023-07-28T03:03:28;2.17;;;1.90;;
57778;SDS011;43608;49.486;9.640;2023-07-28T03:04:01;2.05;;;1.85;;
57778;SDS011;43608;49.486;9.640;2023-07-28T03:04:32;1.88;;;1.75;;
57778;SDS011;43608;49.486;9.640;2023-07-28T03:05:02;2.03;;;1.83;;
57778;SDS011;43608;49.486;9.640;2023-07-28T03:05:34;2.00;;;1.80;;
57778;SDS011;43608;49.486;9.640;2023-07-28T03:06:04;2.00;;;1.80;;
57778;SDS011;43608;49.486;9.640;2023-07-28T03:06:35;2.22;;;2.00;;
57778;SDS011;43608;49.486;9.640;2023-07-28T03:07:05;2.10;;;1.90;;
57778;SDS011;43608;49.486;9.640;2023-07-28T03:07:35;2.10;;;1.90;;
57778;SDS011;43608;49.486;9.640;2023-07-28T03:08:06;2.13;;;1.88;;
57778;SDS011;43608;49.486;9.640;2023-07-28T03:08:36;2.05;;;1.88;;
57778;SDS011;43608;49.486;9.640;2023-07-28T03:09:07;2.00;;;1.80;;
57778;SDS011;43608;49.486;9.640;2023-07-28T03:09:37;2.17;;;1.90;;
57778;SDS011;43608;49.486;9.640;2023-07-28T03:10:07;1.98;;;1.88;;
57778;SDS011;43608;49.486;9.640;2023-07-28T03:10:38;1.95;;;1.77;;
57778;SDS011;43608;49.486;9.640;2023-07-28T03:11:09;2.05;;;1.85;;